Time;durP1;ratioP1;P1;durP2;ratioP2;P2;SDS_P1;SDS_P2;PMS_P1;PMS_P2;Temp;Humidity;BMP_temperature;BMP_pressure;BME280_temperature;BME280_humidity;BME280_pressure;Samples;Min_cycle;Max_cycle;Signal;HPM_P1;HPM_P2
2023/10/14 00:00:26;;;;;;;13.23;6.57;;;20.00;73.70;;;;;;5061744;28;21003;-51
2023/10/14 00:02:55;;;;;;;11.10;6.70;;;20.00;73.60;;;;;;5062339;28;20541;-51
2023/10/14 00:05:24;;;;;;;8.57;7.07;;;20.00;73.60;;;;;;5054736;28;20455;-51
2023/10/14 00:07:53;;;;;;;8.47;7.57;;;20.10;73.70;;;;;;5032765;28;20473;-51
2023/10/14 00:10:22;;;;;;;7.57;6.80;;;20.00;73.40;;;;;;5063598;28;20462;-51
2023/10/14 00:12:53;;;;;;;8.30;6.33;;;20.00;73.50;;;;;;5068127;28;20875;-53
2023/10/14 00:15:21;;;;;;;7.53;6.73;;;20.00;73.30;;;;;;5061166;28;21306;-52
2023/10/14 00:17:51;;;;;;;8.87;6.20;;;20.00;73.30;;;;;;5050199;28;20470;-51
2023/10/14 00:20:19;;;;;;;9.63;6.47;;;20.00;73.10;;;;;;5063918;28;20432;-51
2023/10/14 00:22:47;;;;;;;8.07;6.20;;;20.00;73.00;;;;;;5041011;28;21004;-51
2023/10/14 00:25:23;;;;;;;11.10;7.20;;;20.00;73.10;;;;;;5063693;28;20972;-50
2023/10/14 00:27:54;;;;;;;10.00;6.80;;;20.00;73.10;;;;;;5046311;28;20473;-51
2023/10/14 00:30:26;;;;;;;7.87;7.20;;;20.00;73.00;;;;;;5061808;28;20544;-50
2023/10/14 00:32:55;;;;;;;7.20;5.63;;;20.00;73.00;;;;;;5056889;28;20478;-50
2023/10/14 00:35:26;;;;;;;8.50;6.60;;;20.00;73.00;;;;;;5065235;28;20561;-50
2023/10/14 00:38:02;;;;;;;7.13;6.43;;;20.00;72.90;;;;;;5060469;28;20562;-50
2023/10/14 00:40:32;;;;;;;8.00;6.20;;;20.00;72.90;;;;;;5047005;28;20435;-50
2023/10/14 00:43:04;;;;;;;7.40;6.50;;;20.00;72.80;;;;;;5062838;28;20471;-50
2023/10/14 00:45:32;;;;;;;6.93;6.10;;;20.10;72.90;;;;;;5064201;28;20465;-51
2023/10/14 00:48:00;;;;;;;6.40;5.60;;;20.10;73.00;;;;;;5045031;28;21063;-50
2023/10/14 00:50:33;;;;;;;9.40;6.10;;;20.00;72.70;;;;;;5062051;28;20459;-51
2023/10/14 00:53:05;;;;;;;7.60;6.33;;;20.00;72.70;;;;;;5060194;28;20474;-51
2023/10/14 00:55:45;;;;;;;6.80;6.10;;;20.00;72.70;;;;;;5052000;28;20455;-50
2023/10/14 00:58:20;;;;;;;6.90;6.20;;;20.00;72.80;;;;;;5045761;28;20463;-50
2023/10/14 01:00:57;;;;;;;8.10;6.23;;;20.00;72.60;;;;;;5043382;28;20439;-51
2023/10/14 01:03:27;;;;;;;7.10;5.80;;;20.00;72.80;;;;;;5066790;28;20423;-50
2023/10/14 01:05:56;;;;;;;8.77;6.30;;;20.00;72.90;;;;;;5062899;28;20661;-49
2023/10/14 01:08:25;;;;;;;7.70;6.20;;;20.00;73.00;;;;;;5059944;28;20447;-51
2023/10/14 01:10:55;;;;;;;5.43;4.93;;;20.00;73.10;;;;;;5060741;28;20546;-50
2023/10/14 01:13:23;;;;;;;6.80;6.10;;;20.00;73.40;;;;;;5063057;28;20458;-51
2023/10/14 01:16:01;;;;;;;6.30;5.20;;;20.00;73.40;;;;;;5060805;28;20443;-51
2023/10/14 01:18:34;;;;;;;8.20;5.97;;;20.00;73.40;;;;;;5060820;28;20431;-48
2023/10/14 01:21:03;;;;;;;6.60;6.00;;;20.00;73.60;;;;;;5062130;28;20465;-51
2023/10/14 01:23:35;;;;;;;5.93;4.90;;;20.00;73.60;;;;;;5059885;28;20435;-51
2023/10/14 01:26:04;;;;;;;7.40;6.20;;;20.00;73.60;;;;;;5062059;28;20560;-51
2023/10/14 01:28:33;;;;;;;7.03;5.70;;;20.00;73.80;;;;;;5061888;28;21116;-50
2023/10/14 01:31:34;;;;;;;5.67;5.00;;;20.00;73.80;;;;;;5059988;28;20459;-51
2023/10/14 01:34:05;;;;;;;6.43;5.33;;;20.00;74.30;;;;;;5044826;28;20465;-50
2023/10/14 01:36:37;;;;;;;6.30;5.70;;;20.00;74.20;;;;;;5059366;28;20462;-51
2023/10/14 01:39:13;;;;;;;5.57;4.73;;;20.00;74.20;;;;;;5062715;28;20431;-50
2023/10/14 01:41:41;;;;;;;8.13;6.33;;;20.00;74.70;;;;;;5046838;28;20533;-51
2023/10/14 01:44:10;;;;;;;7.40;5.20;;;20.00;74.70;;;;;;5046240;28;21018;-51
2023/10/14 01:46:42;;;;;;;5.80;4.80;;;20.00;74.40;;;;;;5057969;28;20475;-51
2023/10/14 01:49:18;;;;;;;5.40;4.60;;;20.00;74.90;;;;;;5059947;28;20482;-51
2023/10/14 01:51:49;;;;;;;7.67;5.30;;;20.00;75.20;;;;;;5057636;28;20547;-50
2023/10/14 01:54:19;;;;;;;8.83;5.40;;;20.00;74.90;;;;;;5046106;28;20467;-50
2023/10/14 01:56:47;;;;;;;4.70;4.20;;;20.00;75.30;;;;;;5060922;28;20475;-50
2023/10/14 01:59:22;;;;;;;7.20;5.33;;;20.00;75.00;;;;;;5060556;28;20433;-51
2023/10/14 02:01:53;;;;;;;6.30;4.20;;;20.00;75.30;;;;;;5044241;28;20458;-50
2023/10/14 02:04:21;;;;;;;5.20;4.70;;;19.90;75.10;;;;;;5068880;28;20523;-51
2023/10/14 02:07:03;;;;;;;5.70;5.07;;;20.00;75.30;;;;;;5063823;28;21199;-50
2023/10/14 02:09:38;;;;;;;4.70;3.87;;;20.00;75.00;;;;;;5061612;28;20485;-51
2023/10/14 02:12:06;;;;;;;6.67;4.33;;;20.00;75.20;;;;;;5062065;28;20455;-50
2023/10/14 02:14:35;;;;;;;5.43;4.30;;;20.00;75.50;;;;;;5059634;28;20467;-50
2023/10/14 02:17:04;;;;;;;4.40;4.00;;;19.90;75.20;;;;;;5065506;28;20458;-50
2023/10/14 02:19:37;;;;;;;6.20;4.67;;;20.00;75.20;;;;;;5059737;28;20439;-51
2023/10/14 02:22:09;;;;;;;4.90;4.40;;;20.00;74.90;;;;;;5041575;28;20822;-49
2023/10/14 02:24:40;;;;;;;5.03;4.47;;;19.90;74.60;;;;;;5066918;28;20466;-51
2023/10/14 02:27:11;;;;;;;5.00;4.23;;;19.90;74.40;;;;;;5044385;28;20554;-51
2023/10/14 02:29:43;;;;;;;5.60;4.60;;;19.90;74.50;;;;;;5057763;28;20443;-51
2023/10/14 02:32:13;;;;;;;5.10;4.70;;;19.90;74.40;;;;;;5058182;28;20502;-50
2023/10/14 02:34:44;;;;;;;5.33;4.63;;;19.90;74.50;;;;;;5047500;28;20458;-50
2023/10/14 02:37:15;;;;;;;6.07;4.30;;;19.90;74.30;;;;;;5057167;28;20485;-50
2023/10/14 02:39:47;;;;;;;3.87;3.57;;;19.90;74.30;;;;;;5059766;28;20451;-50
2023/10/14 02:42:16;;;;;;;4.93;4.00;;;19.90;74.20;;;;;;5060429;28;20988;-50
2023/10/14 02:44:46;;;;;;;4.93;4.53;;;19.90;74.10;;;;;;5064068;28;20493;-50
2023/10/14 02:47:17;;;;;;;4.50;4.10;;;19.90;74.10;;;;;;5058452;28;20471;-51
2023/10/14 02:49:53;;;;;;;4.50;3.80;;;19.90;74.10;;;;;;5045459;28;20454;-51
2023/10/14 02:52:28;;;;;;;5.27;4.77;;;19.90;74.00;;;;;;5058931;28;20467;-50
2023/10/14 02:55:19;;;;;;;4.33;3.93;;;19.90;73.90;;;;;;5065116;28;20468;-49
2023/10/14 02:57:48;;;;;;;3.87;3.57;;;19.90;75.20;;;;;;5064340;28;20554;-50
2023/10/14 03:00:22;;;;;;;4.40;4.00;;;19.90;73.90;;;;;;5059734;28;20447;-50
2023/10/14 03:02:54;;;;;;;4.73;3.90;;;19.90;73.80;;;;;;5061372;28;20477;-48
2023/10/14 03:05:36;;;;;;;4.23;3.83;;;19.90;73.70;;;;;;5060750;28;20459;-51
2023/10/14 03:08:09;;;;;;;4.37;3.97;;;19.90;73.70;;;;;;5056033;28;20569;-50
2023/10/14 03:10:42;;;;;;;3.67;3.37;;;19.90;73.70;;;;;;5068843;28;20442;-48
2023/10/14 03:13:11;;;;;;;3.63;3.30;;;19.90;73.70;;;;;;5045664;28;20478;-51
2023/10/14 03:15:44;;;;;;;4.00;3.70;;;19.90;73.60;;;;;;5060011;28;20925;-51
2023/10/14 03:18:16;;;;;;;4.20;3.70;;;19.90;73.60;;;;;;5046832;28;20447;-50
2023/10/14 03:20:58;;;;;;;3.20;2.90;;;19.90;73.60;;;;;;5046221;28;20439;-50
2023/10/14 03:23:28;;;;;;;4.60;3.40;;;19.90;73.50;;;;;;5043095;28;20515;-50
2023/10/14 03:26:10;;;;;;;4.23;3.70;;;19.80;73.30;;;;;;5046676;28;20435;-50
2023/10/14 03:28:38;;;;;;;3.63;3.30;;;19.90;73.30;;;;;;5066878;28;20497;-50
2023/10/14 03:31:08;;;;;;;4.43;3.40;;;19.80;73.30;;;;;;5043060;28;20459;-50
2023/10/14 03:33:43;;;;;;;4.13;3.70;;;19.90;73.50;;;;;;5060664;28;20459;-50
2023/10/14 03:36:15;;;;;;;3.37;3.00;;;19.80;73.20;;;;;;5043494;28;20430;-51
2023/10/14 03:38:47;;;;;;;4.00;3.30;;;19.90;73.30;;;;;;5056742;28;20945;-51
2023/10/14 03:41:21;;;;;;;3.47;3.17;;;19.80;73.20;;;;;;5059471;28;20472;-51
2023/10/14 03:43:54;;;;;;;3.60;3.30;;;19.80;73.20;;;;;;5057889;28;20469;-51
2023/10/14 03:46:32;;;;;;;3.43;3.13;;;19.80;73.10;;;;;;5057476;28;20467;-51
2023/10/14 03:49:07;;;;;;;3.83;3.10;;;19.80;73.20;;;;;;5058565;28;20435;-51
2023/10/14 03:51:49;;;;;;;4.07;3.00;;;19.80;73.10;;;;;;5053238;28;20534;-51
2023/10/14 03:54:23;;;;;;;3.40;3.13;;;19.80;73.00;;;;;;5060365;28;20483;-50
2023/10/14 03:56:56;;;;;;;3.43;3.03;;;19.80;72.90;;;;;;5042792;28;20431;-50
2023/10/14 03:59:26;;;;;;;4.07;3.20;;;19.80;72.80;;;;;;5045099;28;21224;-50
2023/10/14 04:01:57;;;;;;;4.27;3.47;;;19.80;72.70;;;;;;5059304;28;20471;-50
2023/10/14 04:04:28;;;;;;;3.90;3.00;;;19.80;72.80;;;;;;5060993;28;20500;-50
2023/10/14 04:09:43;;;;;;;3.70;2.90;;;19.80;72.70;;;;;;5045666;28;20427;-50
2023/10/14 04:12:29;;;;;;;3.23;3.00;;;19.70;72.60;;;;;;5064908;28;20470;-50
2023/10/14 04:15:05;;;;;;;4.40;3.37;;;19.80;72.50;;;;;;5067494;28;20469;-50
2023/10/14 04:17:33;;;;;;;3.50;3.17;;;19.70;72.30;;;;;;5058836;28;20471;-51
2023/10/14 04:20:21;;;;;;;3.40;2.77;;;19.80;72.50;;;;;;5064340;28;20462;-51
2023/10/14 04:22:53;;;;;;;3.10;2.80;;;19.70;72.20;;;;;;5041868;28;20482;-50
2023/10/14 04:25:42;;;;;;;4.00;2.53;;;19.70;72.20;;;;;;5045812;28;20554;-49
2023/10/14 04:28:30;;;;;;;3.20;2.67;;;19.80;72.10;;;;;;5046118;28;20455;-51
2023/10/14 04:31:06;;;;;;;3.53;3.20;;;19.80;72.10;;;;;;5059413;28;20537;-48
2023/10/14 04:33:44;;;;;;;4.03;3.20;;;19.80;71.90;;;;;;5047279;28;20451;-51
2023/10/14 04:39:25;;;;;;;3.43;2.70;;;19.80;71.80;;;;;;5028109;28;20435;-50
2023/10/14 04:42:11;;;;;;;3.20;2.40;;;19.80;71.70;;;;;;5030918;28;20482;-51
2023/10/14 04:44:54;;;;;;;4.00;2.80;;;19.70;71.50;;;;;;5027284;28;20462;-50
2023/10/14 04:47:35;;;;;;;4.27;3.10;;;19.80;71.70;;;;;;5046368;28;20467;-48
2023/10/14 04:50:10;;;;;;;3.60;2.87;;;19.70;71.40;;;;;;5046191;28;20443;-51
2023/10/14 04:52:39;;;;;;;3.90;2.53;;;19.70;71.50;;;;;;5045659;28;20569;-49
2023/10/14 04:55:20;;;;;;;2.57;2.37;;;19.70;71.40;;;;;;5030790;28;20463;-51
2023/10/14 04:58:06;;;;;;;5.40;2.73;;;19.70;71.10;;;;;;5046091;28;20490;-49
2023/10/14 05:00:41;;;;;;;3.17;2.47;;;19.70;71.40;;;;;;5049751;28;20453;-51
2023/10/14 05:03:13;;;;;;;3.37;2.80;;;19.80;71.50;;;;;;5044641;28;20834;-51
2023/10/14 05:05:49;;;;;;;2.70;2.40;;;19.80;71.40;;;;;;5047354;28;20527;-50
2023/10/14 05:08:21;;;;;;;5.23;2.83;;;19.70;71.30;;;;;;5059563;28;20474;-50
2023/10/14 05:10:52;;;;;;;4.83;3.00;;;19.70;71.20;;;;;;5062133;28;20478;-50
2023/10/14 05:13:29;;;;;;;2.87;2.57;;;19.70;71.30;;;;;;5048064;28;20463;-50
2023/10/14 05:16:15;;;;;;;3.20;2.43;;;19.80;71.10;;;;;;5068271;28;20498;-50
2023/10/14 05:18:58;;;;;;;3.40;2.70;;;19.70;71.00;;;;;;5061809;28;20467;-50
2023/10/14 05:21:36;;;;;;;3.27;2.43;;;19.70;71.00;;;;;;5058964;28;20431;-50
2023/10/14 05:24:09;;;;;;;4.67;3.03;;;19.70;71.10;;;;;;5060583;28;20554;-49
2023/10/14 05:26:44;;;;;;;3.67;2.20;;;19.70;71.10;;;;;;5063745;28;20437;-50
2023/10/14 05:29:16;;;;;;;4.60;2.80;;;19.70;71.00;;;;;;5047681;28;20717;-51
2023/10/14 05:31:47;;;;;;;3.60;2.50;;;19.70;71.00;;;;;;5044984;28;20980;-51
2023/10/14 05:34:21;;;;;;;3.93;2.30;;;19.70;70.90;;;;;;5047215;28;20511;-51
2023/10/14 05:36:52;;;;;;;3.50;2.10;;;19.70;70.90;;;;;;5058922;28;20706;-52
2023/10/14 05:39:21;;;;;;;4.40;3.33;;;19.70;71.00;;;;;;5046881;28;20471;-50
2023/10/14 05:41:56;;;;;;;3.03;2.70;;;19.70;71.00;;;;;;5065527;28;21201;-50
2023/10/14 05:44:27;;;;;;;4.80;2.73;;;19.70;70.70;;;;;;5055010;28;20454;-50
2023/10/14 05:46:57;;;;;;;3.40;2.40;;;19.70;70.70;;;;;;5049436;28;20500;-51
2023/10/14 05:49:25;;;;;;;6.47;3.30;;;19.70;70.70;;;;;;5045504;28;20874;-51
2023/10/14 05:51:54;;;;;;;3.27;2.97;;;19.70;70.40;;;;;;5058579;28;20569;-50
2023/10/14 05:54:23;;;;;;;6.47;3.00;;;19.60;70.40;;;;;;5045815;28;20483;-50
2023/10/14 05:56:52;;;;;;;4.57;2.10;;;19.60;70.30;;;;;;5065218;28;21027;-50
2023/10/14 05:59:20;;;;;;;3.17;2.30;;;19.60;70.30;;;;;;5045241;28;20451;-50
2023/10/14 06:01:49;;;;;;;3.40;2.27;;;19.60;70.40;;;;;;5062032;28;20945;-51
2023/10/14 06:04:19;;;;;;;3.67;2.43;;;19.60;70.20;;;;;;5066598;28;20801;-51
2023/10/14 06:06:48;;;;;;;3.60;2.70;;;19.60;70.20;;;;;;5057580;28;20482;-50
2023/10/14 06:09:17;;;;;;;5.70;2.83;;;19.60;70.30;;;;;;5068682;28;20979;-50
2023/10/14 06:11:46;;;;;;;7.07;3.17;;;19.60;70.30;;;;;;5063074;28;20516;-51
2023/10/14 06:14:15;;;;;;;2.60;2.30;;;19.60;70.30;;;;;;5069443;28;20555;-51
2023/10/14 06:16:43;;;;;;;3.93;2.10;;;19.60;70.40;;;;;;5068379;28;20526;-51
2023/10/14 06:19:13;;;;;;;3.50;2.00;;;19.60;70.30;;;;;;5070079;28;21001;-50
2023/10/14 06:21:44;;;;;;;3.97;2.20;;;19.60;70.20;;;;;;5059403;28;20540;-50
2023/10/14 06:24:13;;;;;;;4.03;2.70;;;19.60;70.00;;;;;;5061993;28;20451;-51
2023/10/14 06:26:41;;;;;;;3.73;2.30;;;19.60;69.90;;;;;;5064463;28;20533;-50
2023/10/14 06:29:10;;;;;;;4.10;2.37;;;19.60;70.00;;;;;;5028582;28;20451;-49
2023/10/14 06:31:40;;;;;;;5.50;2.57;;;19.60;69.40;;;;;;5059185;28;20952;-51
2023/10/14 06:34:09;;;;;;;6.00;2.77;;;19.60;69.60;;;;;;5045048;28;20471;-49
2023/10/14 06:36:47;;;;;;;3.33;2.23;;;19.60;69.90;;;;;;5058294;28;21119;-49
2023/10/14 06:39:26;;;;;;;4.03;2.67;;;19.60;69.70;;;;;;5061367;28;20534;-49
2023/10/14 06:41:55;;;;;;;3.30;2.07;;;19.60;69.50;;;;;;5045464;28;20474;-51
2023/10/14 06:44:27;;;;;;;6.57;2.60;;;19.60;69.70;;;;;;5044181;28;22307;-50
2023/10/14 06:46:56;;;;;;;5.90;2.60;;;19.50;69.30;;;;;;5058019;28;21703;-49
2023/10/14 06:49:32;;;;;;;4.30;2.20;;;19.50;69.30;;;;;;5046178;28;20443;-49
2023/10/14 06:52:04;;;;;;;7.00;2.40;;;19.50;69.10;;;;;;5044129;28;20528;-51
2023/10/14 06:54:36;;;;;;;4.00;2.30;;;19.50;69.10;;;;;;5064087;28;20544;-50
2023/10/14 06:57:07;;;;;;;3.67;2.40;;;19.50;69.40;;;;;;5059840;28;20501;-51
2023/10/14 06:59:37;;;;;;;3.53;2.23;;;19.50;69.40;;;;;;5060819;28;20443;-50
2023/10/14 07:02:06;;;;;;;3.47;2.60;;;19.50;69.20;;;;;;5058765;28;20544;-51
2023/10/14 07:04:37;;;;;;;5.23;2.63;;;19.50;69.20;;;;;;5049120;28;20447;-52
2023/10/14 07:07:09;;;;;;;3.50;1.73;;;19.50;69.40;;;;;;5053746;28;20566;-51
2023/10/14 07:09:44;;;;;;;3.23;2.00;;;19.50;69.10;;;;;;5062746;28;20442;-50
2023/10/14 07:12:14;;;;;;;4.57;2.20;;;19.50;69.00;;;;;;5059425;28;20463;-51
2023/10/14 07:14:45;;;;;;;4.33;2.30;;;19.50;70.60;;;;;;5061066;28;20925;-50
2023/10/14 07:17:17;;;;;;;2.67;1.70;;;19.50;69.00;;;;;;5058185;28;20921;-51
2023/10/14 07:19:47;;;;;;;3.70;1.97;;;19.50;69.10;;;;;;5058507;28;20515;-51
2023/10/14 07:22:20;;;;;;;2.20;1.70;;;19.50;69.20;;;;;;5057451;28;20471;-51
2023/10/14 07:24:52;;;;;;;3.50;2.57;;;19.50;68.70;;;;;;5059436;28;20500;-51
2023/10/14 07:27:20;;;;;;;5.83;2.50;;;19.50;69.20;;;;;;5051504;28;20491;-50
2023/10/14 07:29:49;;;;;;;3.87;1.77;;;19.50;68.60;;;;;;5056770;28;20458;-50
2023/10/14 07:32:19;;;;;;;3.13;2.07;;;19.50;68.90;;;;;;5044984;28;20550;-49
2023/10/14 07:34:53;;;;;;;3.20;2.30;;;19.50;68.90;;;;;;5062889;28;21671;-51
2023/10/14 07:37:21;;;;;;;2.90;2.37;;;19.50;68.60;;;;;;5045598;28;20509;-50
2023/10/14 07:39:52;;;;;;;3.23;1.87;;;19.50;68.80;;;;;;5061714;28;20462;-50
2023/10/14 07:42:21;;;;;;;5.90;2.37;;;19.40;68.70;;;;;;5067832;28;20555;-51
2023/10/14 07:44:52;;;;;;;2.80;2.13;;;19.40;68.40;;;;;;5046406;28;20487;-50
2023/10/14 07:47:21;;;;;;;3.97;2.30;;;19.40;68.40;;;;;;5047839;28;20475;-50
2023/10/14 07:49:50;;;;;;;3.13;2.17;;;19.50;68.80;;;;;;5062627;28;20461;-50
2023/10/14 07:52:20;;;;;;;3.43;2.40;;;19.50;69.10;;;;;;5059353;28;20892;-51
2023/10/14 07:54:51;;;;;;;3.23;1.80;;;19.40;68.80;;;;;;5062979;28;20483;-50
2023/10/14 07:57:20;;;;;;;3.80;2.17;;;19.40;68.80;;;;;;5048352;28;20459;-50
2023/10/14 07:59:50;;;;;;;3.53;2.03;;;19.40;68.90;;;;;;5046696;28;20433;-50
2023/10/14 08:02:19;;;;;;;4.27;2.20;;;19.50;68.90;;;;;;5034226;28;20470;-50
2023/10/14 08:04:53;;;;;;;2.90;1.90;;;19.40;68.80;;;;;;5027223;28;20981;-51
2023/10/14 08:07:22;;;;;;;5.97;2.57;;;19.50;68.90;;;;;;5023969;28;20886;-50
2023/10/14 08:09:52;;;;;;;4.00;1.93;;;19.40;68.80;;;;;;5029009;28;20436;-51
2023/10/14 08:12:20;;;;;;;5.17;2.37;;;19.50;68.90;;;;;;5013697;28;20480;-51
2023/10/14 08:14:52;;;;;;;2.90;1.90;;;19.40;68.80;;;;;;5025703;28;20472;-51
2023/10/14 08:17:22;;;;;;;3.43;2.10;;;19.40;68.70;;;;;;5037980;28;20891;-50
2023/10/14 08:19:52;;;;;;;3.90;2.17;;;19.40;68.90;;;;;;5047891;28;20916;-50
2023/10/14 08:22:20;;;;;;;4.50;2.43;;;19.40;68.80;;;;;;5026712;28;20548;-50
2023/10/14 08:24:53;;;;;;;5.25;2.30;;;19.50;67.70;;;;;;5044602;28;20427;-50
2023/10/14 08:27:22;;;;;;;5.07;2.43;;;19.50;67.10;;;;;;5045844;28;20720;-50
2023/10/14 08:29:53;;;;;;;4.80;1.97;;;19.50;66.80;;;;;;5048666;28;20442;-51
2023/10/14 08:32:23;;;;;;;4.80;2.20;;;19.50;67.00;;;;;;5047303;28;20490;-51
2023/10/14 08:34:52;;;;;;;4.00;1.93;;;19.50;67.10;;;;;;5047339;28;20562;-50
2023/10/14 08:37:20;;;;;;;4.00;1.80;;;19.50;67.40;;;;;;5043541;28;20545;-50
2023/10/14 08:39:48;;;;;;;6.30;2.30;;;19.50;67.30;;;;;;5046636;28;20938;-49
2023/10/14 08:42:19;;;;;;;3.30;1.60;;;19.50;67.40;;;;;;5044471;28;20568;-49
2023/10/14 08:44:50;;;;;;;5.77;2.00;;;19.40;67.40;;;;;;5023771;28;20502;-51
2023/10/14 08:47:19;;;;;;;3.93;2.13;;;19.40;67.40;;;;;;5049982;28;20467;-51
2023/10/14 08:49:48;;;;;;;7.10;2.60;;;19.40;67.40;;;;;;5044936;28;20443;-49
2023/10/14 08:52:18;;;;;;;4.80;2.00;;;19.40;67.50;;;;;;5042786;28;20890;-50
2023/10/14 08:54:48;;;;;;;10.17;2.70;;;19.40;67.60;;;;;;5035213;28;21183;-51
2023/10/14 08:57:22;;;;;;;5.10;1.90;;;19.40;66.80;;;;;;5027468;28;20521;-49
2023/10/14 08:59:50;;;;;;;3.67;2.03;;;19.40;66.70;;;;;;5044048;28;20439;-49
2023/10/14 09:02:22;;;;;;;3.80;1.80;;;19.40;66.50;;;;;;5040889;28;20549;-51
2023/10/14 09:04:50;;;;;;;3.57;2.10;;;19.40;65.90;;;;;;5045971;28;20467;-48
2023/10/14 09:07:23;;;;;;;6.57;2.77;;;19.30;66.30;;;;;;5044160;28;20478;-49
2023/10/14 09:09:53;;;;;;;7.37;2.20;;;19.20;58.10;;;;;;5044706;28;22108;-50
2023/10/14 09:12:23;;;;;;;8.07;2.90;;;18.90;55.90;;;;;;5045406;28;20482;-49
2023/10/14 09:14:52;;;;;;;12.43;3.13;;;18.70;57.40;;;;;;5042282;28;20463;-49
2023/10/14 09:17:24;;;;;;;7.13;2.30;;;18.40;57.80;;;;;;5045841;28;20459;-50
2023/10/14 09:19:53;;;;;;;7.00;2.67;;;18.30;59.60;;;;;;5047953;28;20489;-50
2023/10/14 09:22:23;;;;;;;4.23;1.97;;;18.40;60.50;;;;;;5026823;28;20463;-50
2023/10/14 09:24:52;;;;;;;5.97;2.37;;;18.40;60.90;;;;;;5040488;28;22740;-50
2023/10/14 09:27:22;;;;;;;5.07;2.43;;;18.50;61.10;;;;;;5044517;28;20561;-51
2023/10/14 09:29:51;;;;;;;5.47;2.27;;;18.60;61.50;;;;;;5031902;28;20443;-51
2023/10/14 09:32:19;;;;;;;5.47;2.53;;;18.70;61.90;;;;;;5033624;28;20475;-48
2023/10/14 09:34:51;;;;;;;7.83;2.83;;;18.80;62.20;;;;;;5015944;28;20463;-48
2023/10/14 09:37:21;;;;;;;4.17;2.53;;;18.80;62.20;;;;;;5026952;28;20553;-49
2023/10/14 09:39:59;;;;;;;4.27;2.03;;;18.90;62.10;;;;;;5034949;28;20999;-51
2023/10/14 09:42:33;;;;;;;6.90;2.20;;;19.00;62.50;;;;;;5025226;28;20504;-50
2023/10/14 09:45:10;;;;;;;4.50;2.10;;;19.00;62.50;;;;;;5030661;28;20479;-50
2023/10/14 09:47:45;;;;;;;5.87;2.20;;;19.00;62.90;;;;;;5026351;28;20474;-51
2023/10/14 09:50:16;;;;;;;7.07;2.23;;;19.10;62.80;;;;;;5016319;28;20466;-50
2023/10/14 09:52:47;;;;;;;5.30;2.20;;;19.10;63.00;;;;;;5033123;28;20575;-50
2023/10/14 09:55:16;;;;;;;3.07;2.17;;;19.10;63.00;;;;;;5030799;28;21055;-51
2023/10/14 09:57:46;;;;;;;4.10;1.77;;;19.20;63.10;;;;;;5035235;28;20735;-50
2023/10/14 10:00:16;;;;;;;6.87;2.43;;;19.20;63.10;;;;;;5035599;28;20450;-49
2023/10/14 10:02:48;;;;;;;7.23;1.90;;;19.20;63.10;;;;;;5042015;28;21118;-51
2023/10/14 10:05:26;;;;;;;4.50;2.37;;;19.20;63.10;;;;;;5046200;28;21042;-49
2023/10/14 10:08:04;;;;;;;4.30;2.30;;;19.20;63.10;;;;;;5037502;28;20552;-51
2023/10/14 10:10:36;;;;;;;3.93;2.13;;;19.20;63.10;;;;;;5043906;28;20457;-51
2023/10/14 10:13:05;;;;;;;7.87;2.07;;;19.30;63.10;;;;;;5041026;28;20567;-51
2023/10/14 10:15:35;;;;;;;3.93;1.90;;;19.30;63.10;;;;;;5044191;28;20465;-52
2023/10/14 10:18:06;;;;;;;6.90;1.83;;;19.30;63.10;;;;;;5044051;28;20467;-51
2023/10/14 10:20:41;;;;;;;3.17;1.50;;;19.30;63.20;;;;;;5044726;28;20898;-50
2023/10/14 10:23:10;;;;;;;6.73;2.10;;;19.30;63.10;;;;;;5045184;28;20485;-51
2023/10/14 10:25:53;;;;;;;6.03;2.47;;;19.30;61.50;;;;;;5041818;28;21055;-52
2023/10/14 10:28:38;;;;;;;4.63;1.90;;;19.30;59.00;;;;;;5043909;28;20769;-52
2023/10/14 10:31:10;;;;;;;4.50;1.60;;;19.30;57.30;;;;;;5034632;28;20829;-51
2023/10/14 10:33:57;;;;;;;6.53;2.20;;;19.30;56.40;;;;;;5049706;28;20458;-52
2023/10/14 10:36:27;;;;;;;8.23;2.60;;;19.20;56.00;;;;;;5043805;28;20864;-53
2023/10/14 10:39:05;;;;;;;5.17;1.73;;;19.20;55.50;;;;;;5040821;28;20893;-51
2023/10/14 10:41:37;;;;;;;9.27;2.53;;;19.10;55.10;;;;;;5034011;28;20886;-52
2023/10/14 10:44:09;;;;;;;5.73;1.70;;;19.10;54.90;;;;;;5044854;28;20240;-50
2023/10/14 10:46:44;;;;;;;5.87;2.83;;;19.10;55.60;;;;;;5047381;28;20477;-51
2023/10/14 10:49:14;;;;;;;9.03;2.20;;;19.10;55.80;;;;;;5044602;28;20956;-50
2023/10/14 10:51:51;;;;;;;10.13;2.10;;;19.10;56.30;;;;;;5045238;28;20562;-51
2023/10/14 10:54:22;;;;;;;6.10;2.60;;;19.10;57.00;;;;;;5044551;28;20754;-49
2023/10/14 10:56:51;;;;;;;7.07;1.90;;;19.10;57.50;;;;;;5045917;28;20458;-51
2023/10/14 10:59:36;;;;;;;2.13;1.20;;;19.10;58.20;;;;;;5049169;28;20839;-51
2023/10/14 11:02:09;;;;;;;4.57;1.90;;;19.20;58.50;;;;;;5038937;28;20475;-51
2023/10/14 11:04:39;;;;;;;5.67;1.33;;;19.20;58.80;;;;;;5044814;28;20493;-49
2023/10/14 11:07:08;;;;;;;4.60;2.10;;;19.20;58.90;;;;;;5044300;28;20557;-51
2023/10/14 11:09:39;;;;;;;4.53;2.00;;;19.20;58.50;;;;;;5041408;28;20438;-50
2023/10/14 11:12:09;;;;;;;3.90;2.10;;;19.20;58.70;;;;;;5043128;28;20462;-51
2023/10/14 11:14:38;;;;;;;5.57;2.00;;;19.20;59.20;;;;;;5046194;28;20489;-49
2023/10/14 11:17:08;;;;;;;7.30;2.23;;;19.20;59.30;;;;;;5036624;28;20967;-49
2023/10/14 11:19:37;;;;;;;6.23;2.10;;;19.20;59.20;;;;;;5044949;28;20430;-48
2023/10/14 11:22:06;;;;;;;5.40;2.00;;;19.20;59.40;;;;;;5041448;28;20529;-49
2023/10/14 11:24:36;;;;;;;5.57;1.80;;;19.20;59.50;;;;;;5051371;28;20478;-50
2023/10/14 11:27:06;;;;;;;4.53;1.50;;;19.20;59.70;;;;;;5050496;28;20940;-49
2023/10/14 11:29:35;;;;;;;3.57;1.70;;;19.20;59.70;;;;;;5048614;28;20430;-50
2023/10/14 11:32:05;;;;;;;5.07;1.87;;;19.20;59.40;;;;;;5045411;28;20562;-51
2023/10/14 11:34:41;;;;;;;3.80;1.83;;;19.20;59.80;;;;;;5049825;28;21040;-51
2023/10/14 11:37:15;;;;;;;5.40;2.10;;;19.20;60.20;;;;;;5035623;28;20482;-51
2023/10/14 11:39:44;;;;;;;3.47;1.80;;;19.20;59.30;;;;;;5044532;28;20449;-51
2023/10/14 11:42:14;;;;;;;2.90;1.33;;;19.20;60.00;;;;;;5044449;28;20995;-50
2023/10/14 11:44:42;;;;;;;3.20;1.53;;;19.20;59.80;;;;;;5046979;28;20500;-49
2023/10/14 11:47:16;;;;;;;5.00;1.50;;;19.20;59.20;;;;;;5043979;28;20459;-51
2023/10/14 11:49:49;;;;;;;7.13;2.07;;;19.20;59.40;;;;;;5048911;28;20814;-49
2023/10/14 11:52:18;;;;;;;4.60;1.20;;;19.20;59.40;;;;;;5041239;28;20474;-50
2023/10/14 11:54:48;;;;;;;6.10;2.37;;;19.20;59.70;;;;;;5039335;28;20568;-51
2023/10/14 11:57:18;;;;;;;4.50;1.37;;;19.20;60.00;;;;;;5044422;28;20536;-51
2023/10/14 11:59:47;;;;;;;3.47;1.67;;;19.20;60.10;;;;;;5044571;28;20454;-51
2023/10/14 12:02:15;;;;;;;3.27;1.43;;;19.20;59.70;;;;;;5043022;28;20466;-51
2023/10/14 12:04:43;;;;;;;5.23;1.47;;;19.20;59.70;;;;;;5049336;28;21045;-50
2023/10/14 12:07:16;;;;;;;5.33;1.40;;;19.20;59.40;;;;;;5023332;28;20467;-50
2023/10/14 12:09:44;;;;;;;3.23;1.47;;;19.20;59.70;;;;;;5050685;28;20427;-50
2023/10/14 12:12:13;;;;;;;3.30;1.60;;;19.20;60.00;;;;;;5046934;28;20546;-50
2023/10/14 12:14:41;;;;;;;4.87;1.40;;;19.20;59.90;;;;;;5047989;28;20886;-50
2023/10/14 12:17:09;;;;;;;3.77;1.47;;;19.20;60.00;;;;;;5045724;28;20474;-51
2023/10/14 12:19:40;;;;;;;3.45;1.70;;;19.20;59.60;;;;;;5050102;28;20432;-50
2023/10/14 12:22:09;;;;;;;2.97;1.20;;;19.20;57.50;;;;;;5039377;28;20228;-50
2023/10/14 12:24:38;;;;;;;6.23;1.60;;;19.10;57.20;;;;;;5049827;28;20565;-50
2023/10/14 12:27:13;;;;;;;7.40;1.93;;;19.20;57.00;;;;;;5049057;28;20474;-50
2023/10/14 12:29:42;;;;;;;3.90;1.90;;;19.20;57.50;;;;;;5050880;28;20441;-51
2023/10/14 12:32:15;;;;;;;3.27;1.50;;;19.20;57.80;;;;;;5042270;28;21204;-50
2023/10/14 12:34:47;;;;;;;5.50;1.90;;;19.20;58.20;;;;;;5040581;28;20566;-50
2023/10/14 12:37:19;;;;;;;4.83;1.83;;;19.20;58.30;;;;;;5037079;28;20470;-49
2023/10/14 12:39:55;;;;;;;2.40;1.33;;;19.20;58.30;;;;;;5025073;28;21372;-50
2023/10/14 12:42:38;;;;;;;3.17;1.37;;;19.20;58.30;;;;;;5035616;28;20622;-50
2023/10/14 12:45:12;;;;;;;3.10;1.60;;;19.20;59.00;;;;;;5037281;28;20538;-50
2023/10/14 12:47:46;;;;;;;2.10;1.40;;;19.20;58.80;;;;;;5024172;28;20473;-51
2023/10/14 12:50:15;;;;;;;7.27;2.07;;;19.20;58.90;;;;;;5047764;28;20438;-50
2023/10/14 12:52:45;;;;;;;2.53;1.37;;;19.20;58.70;;;;;;5043857;28;20491;-50
2023/10/14 12:55:19;;;;;;;4.37;1.63;;;19.20;58.80;;;;;;5046127;28;20493;-49
2023/10/14 12:57:48;;;;;;;4.43;2.23;;;19.20;58.80;;;;;;5045233;28;20474;-48
2023/10/14 13:00:25;;;;;;;4.43;1.33;;;19.30;59.20;;;;;;5046827;28;20438;-50
2023/10/14 13:02:53;;;;;;;5.30;1.40;;;19.20;59.00;;;;;;5042259;28;20475;-49
2023/10/14 13:05:23;;;;;;;6.87;2.43;;;19.20;57.50;;;;;;5048166;28;21054;-50
2023/10/14 13:07:52;;;;;;;4.47;2.10;;;19.10;52.70;;;;;;5042566;28;20467;-50
2023/10/14 13:10:22;;;;;;;3.43;1.53;;;19.10;53.70;;;;;;5045443;28;20463;-50
2023/10/14 13:12:55;;;;;;;4.10;1.53;;;19.10;55.20;;;;;;5046302;28;20525;-50
2023/10/14 13:15:28;;;;;;;7.10;1.93;;;19.10;55.80;;;;;;5044943;28;20871;-50